Banks, Mississippi
Current Conditions -  °F | °C
As of 11:35 AM on Tuesday 21 Oct 2014 (Local Time) from KUTA Reporting Station
Clear Clear  
Wind Chill: 22°   Ceiling: Unl
Heat Index: 22°   Visibility: 10mi
Dew Point: 11°   Wind: 0mph
Humidity: 50%   Direction: NA
Pressure: 30.11"   Gusts: NA
Location:  34.8092°N, 90.3159°W
Report Text: KUTA 211635Z AUTO 00000KT 10SM CLR 22/11 A3011 RMK AO2
Loading
Personal Weather Stations






























Interactive Weather Map
Tropical Storm Tracking
New forecast layout! Learn more

10-Day Weather Forecast

Advertisements
Track Severe Weather on mobile